Time;durP1;ratioP1;P1;durP2;ratioP2;P2;SDS_P1;SDS_P2;PMS_P1;PMS_P2;Temp;Humidity;BMP_temperature;BMP_pressure;BME280_temperature;BME280_humidity;BME280_pressure;Samples;Min_cycle;Max_cycle;Signal;HPM_P1;HPM_P2
2022/03/17 00:00:24;;;;;;;;;;;231.10;2252.80;;;;;;5081530;28;20354;-78
2022/03/17 00:02:50;;;;;;;;;;;231.20;2252.80;;;;;;5075855;28;19991;-80
2022/03/17 00:05:15;;;;;;;;;;;231.20;2252.80;;;;;;5086749;28;19911;-80
2022/03/17 00:07:41;;;;;;;;;;;231.10;2252.80;;;;;;5093041;28;19904;-81
2022/03/17 00:10:08;;;;;;;;;;;231.10;2252.80;;;;;;5092728;28;19904;-80
2022/03/17 00:12:34;;;;;;;;;;;231.00;2252.80;;;;;;5081379;28;19966;-80
2022/03/17 00:14:59;;;;;;;;;;;230.90;2252.80;;;;;;5085278;28;20363;-79
2022/03/17 00:17:26;;;;;;;;;;;230.70;2252.80;;;;;;5087761;28;20352;-80
2022/03/17 00:19:52;;;;;;;;;;;230.90;2252.80;;;;;;5085468;28;19904;-80
2022/03/17 00:22:18;;;;;;;;;;;231.00;2252.80;;;;;;5084848;28;19961;-80
2022/03/17 00:24:44;;;;;;;;;;;230.90;2252.80;;;;;;5087617;28;19949;-81
2022/03/17 00:27:10;;;;;;;;;;;231.00;2252.80;;;;;;5086395;28;20314;-78
2022/03/17 00:29:36;;;;;;;;;;;231.00;2252.80;;;;;;5084584;28;19912;-80
2022/03/17 00:32:02;;;;;;;;;;;230.90;2252.80;;;;;;5086685;28;20367;-79
2022/03/17 00:34:28;;;;;;;;;;;230.90;2252.80;;;;;;5082732;28;20006;-80
2022/03/17 00:36:53;;;;;;;;;;;230.90;2252.80;;;;;;5083839;28;19974;-79
2022/03/17 00:39:19;;;;;;;;;;;231.00;2252.80;;;;;;5086726;28;19904;-80
2022/03/17 00:41:45;;;;;;;;;;;230.90;2252.80;;;;;;5082676;28;19911;-80
2022/03/17 00:44:11;;;;;;;;;;;230.90;2252.80;;;;;;5086741;28;19919;-80
2022/03/17 00:46:37;;;;;;;;;;;230.80;2252.80;;;;;;5088188;28;20249;-80
2022/03/17 00:49:03;;;;;;;;;;;230.70;2252.80;;;;;;5086254;28;19942;-79
2022/03/17 00:51:28;;;;;;;;;;;230.80;2252.80;;;;;;5086371;28;19926;-79
2022/03/17 00:53:54;;;;;;;;;;;230.80;2252.80;;;;;;5083831;28;19912;-79
2022/03/17 00:56:20;;;;;;;;;;;230.90;2252.80;;;;;;5084134;28;19969;-80
2022/03/17 00:58:48;;;;;;;;;;;230.90;2252.80;;;;;;5083689;28;19904;-81
2022/03/17 01:01:15;;;;;;;;;;;230.90;2252.80;;;;;;5080901;28;19908;-81
2022/03/17 01:03:40;;;;;;;;;;;230.90;2252.80;;;;;;5083785;28;19908;-80
2022/03/17 01:06:06;;;;;;;;;;;230.90;2252.80;;;;;;5083403;28;19911;-80
2022/03/17 01:08:32;;;;;;;;;;;230.90;2252.80;;;;;;5080558;28;19903;-81
2022/03/17 01:10:57;;;;;;;;;;;230.90;2252.80;;;;;;5086581;28;19912;-80
2022/03/17 01:13:23;;;;;;;;;;;230.90;2252.80;;;;;;5087327;28;19912;-78
2022/03/17 01:15:49;;;;;;;;;;;230.80;2252.80;;;;;;5085162;28;19905;-80
2022/03/17 01:18:14;;;;;;;;;;;230.60;2252.80;;;;;;5084087;28;20036;-79
2022/03/17 01:20:41;;;;;;;;;;;230.70;2252.80;;;;;;5085867;28;19911;-81
2022/03/17 01:23:07;;;;;;;;;;;230.60;2252.80;;;;;;5087675;28;20241;-81
2022/03/17 01:25:33;;;;;;;;;;;230.60;2252.80;;;;;;5084772;28;19904;-81
2022/03/17 01:27:58;;;;;;;;;;;230.60;2252.80;;;;;;5082822;28;19919;-80
2022/03/17 01:30:24;;;;;;;;;;;230.70;2252.80;;;;;;5086441;28;20343;-77
2022/03/17 01:32:49;;;;;;;;;;;230.60;2252.80;;;;;;5087307;28;19908;-81
2022/03/17 01:35:15;;;;;;;;;;;230.60;2252.80;;;;;;5086701;28;19952;-79
2022/03/17 01:37:41;;;;;;;;;;;230.60;2252.80;;;;;;5080955;28;19904;-81
2022/03/17 01:40:07;;;;;;;;;;;230.60;2252.80;;;;;;5086643;28;19904;-81
2022/03/17 01:42:33;;;;;;;;;;;230.60;2252.80;;;;;;5085994;28;20004;-80
2022/03/17 01:44:59;;;;;;;;;;;230.60;2252.80;;;;;;5083636;28;20677;-79
2022/03/17 01:47:27;;;;;;;;;;;230.60;2252.80;;;;;;5083735;28;19991;-80
2022/03/17 01:49:57;;;;;;;;;;;230.70;2252.80;;;;;;5083953;28;19916;-81
2022/03/17 01:52:23;;;;;;;;;;;230.60;2252.80;;;;;;5085675;28;19904;-79
2022/03/17 01:54:49;;;;;;;;;;;230.60;2252.80;;;;;;5082426;28;20276;-79
2022/03/17 01:57:15;;;;;;;;;;;230.70;2252.80;;;;;;5082893;28;19904;-79
2022/03/17 01:59:41;;;;;;;;;;;230.60;2252.80;;;;;;5081873;28;19912;-79
2022/03/17 02:02:08;;;;;;;;;;;230.60;2252.80;;;;;;5085152;28;19915;-81
2022/03/17 02:04:35;;;;;;;;;;;230.70;2252.80;;;;;;5083100;28;19954;-80
2022/03/17 02:07:02;;;;;;;;;;;230.70;2252.80;;;;;;5077641;28;19935;-79
2022/03/17 02:09:28;;;;;;;;;;;230.60;2252.80;;;;;;5079366;28;19965;-79
2022/03/17 02:15:04;;;;;;;;;;;230.60;2252.80;;;;;;5082557;28;19919;-80
2022/03/17 02:17:30;;;;;;;;;;;230.40;2252.80;;;;;;5081620;28;19958;-79
2022/03/17 02:20:00;;;;;;;;;;;230.60;2252.80;;;;;;5084410;28;19991;-81
2022/03/17 02:22:26;;;;;;;;;;;230.60;2252.80;;;;;;5082832;28;19930;-79
2022/03/17 02:27:38;;;;;;;;;;;230.70;2252.80;;;;;;5084097;28;20317;-81
2022/03/17 02:30:05;;;;;;;;;;;230.80;2252.80;;;;;;5082105;28;19927;-81
2022/03/17 02:32:31;;;;;;;;;;;230.80;2252.80;;;;;;5083400;28;19909;-79
2022/03/17 02:34:56;;;;;;;;;;;230.80;2252.80;;;;;;5082535;28;19966;-81
2022/03/17 02:37:24;;;;;;;;;;;230.90;2252.80;;;;;;5079279;28;20352;-81
2022/03/17 02:39:49;;;;;;;;;;;230.60;2252.80;;;;;;5076075;28;19904;-78
2022/03/17 02:42:15;;;;;;;;;;;230.90;2252.80;;;;;;5082757;28;19949;-81
2022/03/17 02:44:41;;;;;;;;;;;230.60;2252.80;;;;;;5084169;28;20030;-81
2022/03/17 02:47:06;;;;;;;;;;;230.70;2252.80;;;;;;5082281;28;19904;-81
2022/03/17 02:49:33;;;;;;;;;;;230.70;2252.80;;;;;;5085010;28;19911;-81
2022/03/17 02:51:58;;;;;;;;;;;230.70;2252.80;;;;;;5085234;28;19964;-78
2022/03/17 02:54:24;;;;;;;;;;;230.60;2252.80;;;;;;5085121;28;19981;-81
2022/03/17 02:56:50;;;;;;;;;;;230.60;2252.80;;;;;;5084770;28;19911;-78
2022/03/17 02:59:15;;;;;;;;;;;230.70;2252.80;;;;;;5081960;28;19957;-82
2022/03/17 03:01:41;;;;;;;;;;;230.60;2252.80;;;;;;5078985;28;19904;-81
2022/03/17 03:04:07;;;;;;;;;;;230.70;2252.80;;;;;;5085293;28;19912;-80
2022/03/17 03:06:32;;;;;;;;;;;230.70;2252.80;;;;;;5080121;28;19906;-81
2022/03/17 03:08:59;;;;;;;;;;;230.80;2252.80;;;;;;5083871;28;19908;-80
2022/03/17 03:11:25;;;;;;;;;;;230.80;2252.80;;;;;;5084317;28;20368;-80
2022/03/17 03:13:50;;;;;;;;;;;230.90;2252.80;;;;;;5082303;28;19959;-80
2022/03/17 03:16:16;;;;;;;;;;;230.60;2252.80;;;;;;5082019;28;20356;-80
2022/03/17 03:18:41;;;;;;;;;;;230.70;2252.80;;;;;;5084620;28;19912;-80
2022/03/17 03:21:07;;;;;;;;;;;230.40;2252.80;;;;;;5082001;28;20313;-79
2022/03/17 03:23:33;;;;;;;;;;;205.50;2252.80;;;;;;5083422;28;19904;-79
2022/03/17 03:25:59;;;;;;;;;;;205.70;2252.80;;;;;;5081331;28;19930;-79
2022/03/17 03:28:24;;;;;;;;;;;230.50;2252.80;;;;;;5090994;28;19904;-80
2022/03/17 03:30:50;;;;;;;;;;;205.50;2252.80;;;;;;5093464;28;20338;-79
2022/03/17 03:33:16;;;;;;;;;;;205.70;2252.80;;;;;;5084059;28;19913;-81
2022/03/17 03:38:26;;;;;;;;;;;230.60;2252.80;;;;;;5084951;28;19911;-79
2022/03/17 03:40:52;;;;;;;;;;;230.60;2252.80;;;;;;5081945;28;19904;-81
2022/03/17 03:43:17;;;;;;;;;;;230.80;2252.80;;;;;;5074627;28;19908;-81
2022/03/17 03:45:43;;;;;;;;;;;230.70;2252.80;;;;;;5084780;28;19911;-81
2022/03/17 03:48:09;;;;;;;;;;;230.50;2252.80;;;;;;5081189;28;19936;-79
2022/03/17 03:50:34;;;;;;;;;;;230.60;2252.80;;;;;;5084906;28;19920;-82
2022/03/17 03:53:00;;;;;;;;;;;230.40;2252.80;;;;;;5083964;28;19904;-80
2022/03/17 03:55:25;;;;;;;;;;;230.50;2252.80;;;;;;5087599;28;20358;-80
2022/03/17 03:57:51;;;;;;;;;;;230.60;2252.80;;;;;;5084566;28;20363;-81
2022/03/17 04:02:55;;;;;;;;;;;230.60;2252.80;;;;;;5088341;28;20383;-79
2022/03/17 04:05:25;;;;;;;;;;;230.40;2252.80;;;;;;5086700;28;19968;-80
2022/03/17 04:07:51;;;;;;;;;;;230.50;2252.80;;;;;;5084502;28;19957;-81
2022/03/17 04:10:17;;;;;;;;;;;230.70;2252.80;;;;;;5086181;28;20006;-81
2022/03/17 04:12:43;;;;;;;;;;;230.60;2252.80;;;;;;5087068;28;19904;-81
2022/03/17 04:15:08;;;;;;;;;;;230.60;2252.80;;;;;;5086122;28;20257;-79
2022/03/17 04:17:35;;;;;;;;;;;230.60;2252.80;;;;;;5087089;28;19911;-79
2022/03/17 04:20:01;;;;;;;;;;;230.70;2252.80;;;;;;5085162;28;19904;-79
2022/03/17 04:22:26;;;;;;;;;;;230.80;2252.80;;;;;;5085285;28;19934;-81
2022/03/17 04:24:52;;;;;;;;;;;230.90;2252.80;;;;;;5085879;28;19950;-79
2022/03/17 04:27:17;;;;;;;;;;;230.80;2252.80;;;;;;5087224;28;19927;-80
2022/03/17 04:29:43;;;;;;;;;;;230.90;2252.80;;;;;;5085679;28;19904;-81
2022/03/17 04:32:09;;;;;;;;;;;230.90;2252.80;;;;;;5086028;28;19908;-78
2022/03/17 04:34:34;;;;;;;;;;;230.90;2252.80;;;;;;5086338;28;20348;-80
2022/03/17 04:37:00;;;;;;;;;;;230.90;2252.80;;;;;;5086188;28;19905;-78
2022/03/17 04:39:26;;;;;;;;;;;230.90;2252.80;;;;;;5085949;28;19911;-79
2022/03/17 04:41:51;;;;;;;;;;;230.80;2252.80;;;;;;5084613;28;19912;-81
2022/03/17 04:44:17;;;;;;;;;;;230.60;2252.80;;;;;;5086179;28;19911;-81
2022/03/17 04:46:46;;;;;;;;;;;230.50;2252.80;;;;;;5087809;28;19904;-80
2022/03/17 04:49:11;;;;;;;;;;;230.60;2252.80;;;;;;5087230;28;19908;-81
2022/03/17 04:51:37;;;;;;;;;;;230.70;2252.80;;;;;;5084623;28;19916;-80
2022/03/17 04:54:03;;;;;;;;;;;230.60;2252.80;;;;;;5084187;28;19948;-79
2022/03/17 04:56:28;;;;;;;;;;;230.50;2252.80;;;;;;5085727;28;19908;-79
2022/03/17 04:58:54;;;;;;;;;;;230.50;2252.80;;;;;;5086052;28;19910;-78
2022/03/17 05:01:19;;;;;;;;;;;230.60;2252.80;;;;;;5086048;28;19959;-81
2022/03/17 05:03:45;;;;;;;;;;;230.60;2252.80;;;;;;5084321;28;19908;-79
2022/03/17 05:06:12;;;;;;;;;;;230.60;2252.80;;;;;;5083727;28;20360;-81
2022/03/17 05:08:38;;;;;;;;;;;230.60;2252.80;;;;;;5079401;28;19977;-85
2022/03/17 05:11:04;;;;;;;;;;;230.70;2252.80;;;;;;5085849;28;19938;-78
2022/03/17 05:13:30;;;;;;;;;;;230.80;2252.80;;;;;;5084584;28;19916;-81
2022/03/17 05:15:56;;;;;;;;;;;230.90;2252.80;;;;;;5086949;28;19947;-81
2022/03/17 05:18:21;;;;;;;;;;;230.90;2252.80;;;;;;5086415;28;19904;-81
2022/03/17 05:20:47;;;;;;;;;;;230.90;2252.80;;;;;;5083564;28;20038;-81
2022/03/17 05:23:15;;;;;;;;;;;231.00;2252.80;;;;;;5082223;28;19939;-82
2022/03/17 05:25:42;;;;;;;;;;;231.00;2252.80;;;;;;5089031;28;19904;-79
2022/03/17 05:28:11;;;;;;;;;;;231.00;2252.80;;;;;;5084222;28;20422;-79
2022/03/17 05:30:37;;;;;;;;;;;231.00;2252.80;;;;;;5082445;28;20024;-80
2022/03/17 05:33:03;;;;;;;;;;;231.00;2252.80;;;;;;5085146;28;19912;-81
2022/03/17 05:35:29;;;;;;;;;;;230.90;2252.80;;;;;;5083772;28;20318;-78
2022/03/17 05:37:55;;;;;;;;;;;230.90;2252.80;;;;;;5082129;28;19904;-81
2022/03/17 05:40:23;;;;;;;;;;;230.80;2252.80;;;;;;5086137;28;19904;-79
2022/03/17 05:42:50;;;;;;;;;;;230.70;2252.80;;;;;;5084090;28;20279;-79
2022/03/17 05:45:16;;;;;;;;;;;230.50;2252.80;;;;;;5083484;28;19904;-79
2022/03/17 05:47:43;;;;;;;;;;;230.50;2252.80;;;;;;5082794;28;19943;-79
2022/03/17 05:50:09;;;;;;;;;;;230.40;2252.80;;;;;;5083530;28;19923;-79
2022/03/17 05:52:36;;;;;;;;;;;205.70;2252.80;;;;;;5083899;28;19943;-79
2022/03/17 05:55:01;;;;;;;;;;;205.70;2252.80;;;;;;5087274;28;19912;-80
2022/03/17 05:57:27;;;;;;;;;;;205.70;2252.80;;;;;;5083844;28;19904;-81
2022/03/17 05:59:52;;;;;;;;;;;205.60;2252.80;;;;;;5084960;28;19904;-81
2022/03/17 06:02:18;;;;;;;;;;;205.60;2252.80;;;;;;5083539;28;19913;-81
2022/03/17 06:04:44;;;;;;;;;;;205.40;2252.80;;;;;;5085494;28;19911;-80
2022/03/17 06:07:10;;;;;;;;;;;205.40;2252.80;;;;;;5081910;28;19905;-78
2022/03/17 06:09:37;;;;;;;;;;;205.30;2252.80;;;;;;5084969;28;19997;-79
2022/03/17 06:12:04;;;;;;;;;;;205.30;2252.80;;;;;;5081535;28;19987;-80
2022/03/17 06:14:30;;;;;;;;;;;205.20;2252.80;;;;;;5086235;28;19918;-81
2022/03/17 06:16:56;;;;;;;;;;;205.20;2252.80;;;;;;5084727;28;19908;-79
2022/03/17 06:19:22;;;;;;;;;;;205.10;2252.80;;;;;;5084642;28;19926;-80
2022/03/17 06:21:47;;;;;;;;;;;205.10;2252.80;;;;;;5082922;28;19983;-79
2022/03/17 06:24:13;;;;;;;;;;;205.20;2252.80;;;;;;5084917;28;19916;-80
2022/03/17 06:26:38;;;;;;;;;;;205.20;2252.80;;;;;;5081707;28;19908;-78
2022/03/17 06:29:04;;;;;;;;;;;205.10;2252.80;;;;;;5083281;28;19939;-80
2022/03/17 06:31:29;;;;;;;;;;;205.00;2252.80;;;;;;5081457;28;19916;-83
2022/03/17 06:33:55;;;;;;;;;;;205.00;2252.80;;;;;;5082360;28;19916;-84
2022/03/17 06:36:21;;;;;;;;;;;204.90;2252.80;;;;;;5081448;28;19954;-78
2022/03/17 06:38:48;;;;;;;;;;;205.00;2252.80;;;;;;5083227;28;19904;-82
2022/03/17 06:41:13;;;;;;;;;;;205.00;2252.80;;;;;;5085289;28;19905;-79
2022/03/17 06:43:39;;;;;;;;;;;204.90;2252.80;;;;;;5085393;28;19904;-87
2022/03/17 06:46:04;;;;;;;;;;;204.80;2252.80;;;;;;5082167;28;20356;-78
2022/03/17 06:48:30;;;;;;;;;;;180.10;2252.80;;;;;;5077691;28;19927;-78
2022/03/17 06:50:57;;;;;;;;;;;179.80;2252.80;;;;;;5084209;28;20007;-79
2022/03/17 06:53:22;;;;;;;;;;;179.70;2252.80;;;;;;5084118;28;19911;-78
2022/03/17 06:55:48;;;;;;;;;;;179.70;2252.80;;;;;;5082076;28;19912;-77
2022/03/17 06:58:13;;;;;;;;;;;179.70;2252.80;;;;;;5081784;28;20302;-78
2022/03/17 07:00:39;;;;;;;;;;;179.90;2252.80;;;;;;5082125;28;19908;-79
2022/03/17 07:03:05;;;;;;;;;;;179.90;2252.80;;;;;;5082218;28;19908;-79
2022/03/17 07:05:30;;;;;;;;;;;179.90;2252.80;;;;;;5082717;28;19905;-75
2022/03/17 07:07:56;;;;;;;;;;;179.80;2252.80;;;;;;5082660;28;19949;-77
2022/03/17 07:10:21;;;;;;;;;;;179.80;2252.80;;;;;;5083739;28;20364;-78
2022/03/17 07:12:47;;;;;;;;;;;179.70;2252.80;;;;;;5083552;28;19904;-78
2022/03/17 07:15:13;;;;;;;;;;;179.80;2252.80;;;;;;5084345;28;20353;-78
2022/03/17 07:17:42;;;;;;;;;;;180.00;2252.80;;;;;;5080002;28;19914;-79
2022/03/17 07:20:09;;;;;;;;;;;179.80;2252.80;;;;;;5081435;28;20320;-79
2022/03/17 07:22:35;;;;;;;;;;;180.00;2252.80;;;;;;5081359;28;19910;-80
2022/03/17 07:25:01;;;;;;;;;;;180.00;2252.80;;;;;;5084481;28;19904;-79
2022/03/17 07:27:26;;;;;;;;;;;204.80;2252.80;;;;;;5085138;28;19911;-79
2022/03/17 07:29:52;;;;;;;;;;;180.10;2252.80;;;;;;5085365;28;19987;-78
2022/03/17 07:32:22;;;;;;;;;;;204.90;2252.80;;;;;;5081383;28;19913;-78
2022/03/17 07:34:49;;;;;;;;;;;204.80;2252.80;;;;;;5082429;28;19981;-79
2022/03/17 07:37:15;;;;;;;;;;;204.90;2252.80;;;;;;5080810;28;19910;-79
2022/03/17 07:39:42;;;;;;;;;;;180.10;2252.80;;;;;;5086268;28;19904;-79
2022/03/17 07:42:08;;;;;;;;;;;180.10;2252.80;;;;;;5082397;28;19904;-79
2022/03/17 07:44:37;;;;;;;;;;;180.10;2252.80;;;;;;5081429;28;19911;-79
2022/03/17 07:47:03;;;;;;;;;;;180.10;2252.80;;;;;;5083445;28;19949;-78
2022/03/17 07:49:29;;;;;;;;;;;180.10;2252.80;;;;;;5083186;28;19908;-78
2022/03/17 07:51:55;;;;;;;;;;;180.10;2252.80;;;;;;5082668;28;19923;-78
2022/03/17 07:54:21;;;;;;;;;;;180.10;2252.80;;;;;;5082979;28;20009;-78
2022/03/17 07:56:46;;;;;;;;;;;180.10;2252.80;;;;;;5082673;28;19908;-78
2022/03/17 07:59:12;;;;;;;;;;;180.10;2252.80;;;;;;5078805;28;19911;-79
2022/03/17 08:01:38;;;;;;;;;;;204.80;2252.80;;;;;;5078333;28;19982;-77
2022/03/17 08:04:03;;;;;;;;;;;204.80;2252.80;;;;;;5084249;28;19908;-78
2022/03/17 08:06:29;;;;;;;;;;;180.10;2252.80;;;;;;5085965;28;19987;-76
2022/03/17 08:08:56;;;;;;;;;;;180.10;2252.80;;;;;;5081821;28;19943;-78
2022/03/17 08:11:23;;;;;;;;;;;180.10;2252.80;;;;;;5083070;28;19991;-78
2022/03/17 08:13:49;;;;;;;;;;;204.90;2252.80;;;;;;5081534;28;20027;-77
2022/03/17 08:16:15;;;;;;;;;;;204.80;2252.80;;;;;;5074154;28;19955;-79
2022/03/17 08:18:41;;;;;;;;;;;180.10;2252.80;;;;;;5080789;28;19904;-78
2022/03/17 08:21:06;;;;;;;;;;;204.80;2252.80;;;;;;5081622;28;20352;-80
2022/03/17 08:23:32;;;;;;;;;;;204.80;2252.80;;;;;;5085807;28;19904;-78
2022/03/17 08:25:57;;;;;;;;;;;204.80;2252.80;;;;;;5082121;28;20376;-77
2022/03/17 08:28:24;;;;;;;;;;;204.90;2252.80;;;;;;5082721;28;20307;-76
2022/03/17 08:30:51;;;;;;;;;;;205.10;2252.80;;;;;;5088791;28;19947;-80
2022/03/17 08:33:17;;;;;;;;;;;205.00;2252.80;;;;;;5092359;28;20253;-79
2022/03/17 08:35:43;;;;;;;;;;;204.90;2252.80;;;;;;5094948;28;19958;-78
2022/03/17 08:38:09;;;;;;;;;;;204.90;2252.80;;;;;;5096381;28;20352;-78
2022/03/17 08:40:38;;;;;;;;;;;204.90;2252.80;;;;;;5096383;28;19911;-78
2022/03/17 08:43:03;;;;;;;;;;;205.00;2252.80;;;;;;5096129;28;19907;-79
2022/03/17 08:50:57;;;;;;;;;;;205.10;2252.80;;;;;;5077440;28;19969;-78
2022/03/17 08:53:22;;;;;;;;;;;205.10;2252.80;;;;;;5080273;28;20006;-77
2022/03/17 08:55:49;;;;;;;;;;;205.20;2252.80;;;;;;5086498;28;20291;-76
2022/03/17 08:58:16;;;;;;;;;;;205.20;2252.80;;;;;;5085248;28;20364;-77
2022/03/17 09:00:42;;;;;;;;;;;205.10;2252.80;;;;;;5081548;28;19908;-76
2022/03/17 09:03:07;;;;;;;;;;;205.10;2252.80;;;;;;5084167;28;19915;-78
2022/03/17 09:05:35;;;;;;;;;;;205.20;2252.80;;;;;;5079030;28;19905;-79
2022/03/17 09:08:02;;;;;;;;;;;205.20;2252.80;;;;;;5076693;28;19904;-79
2022/03/17 09:10:27;;;;;;;;;;;205.30;2252.80;;;;;;5075284;28;20042;-79
2022/03/17 09:12:57;;;;;;;;;;;205.30;2252.80;;;;;;5076549;28;20356;-79
2022/03/17 09:15:24;;;;;;;;;;;205.30;2252.80;;;;;;5074994;28;19919;-78
2022/03/17 09:17:50;;;;;;;;;;;205.60;2252.80;;;;;;5075146;28;19947;-78
2022/03/17 09:20:16;;;;;;;;;;;205.50;2252.80;;;;;;5075062;28;19904;-78
2022/03/17 09:22:45;;;;;;;;;;;205.50;2252.80;;;;;;5075172;28;20260;-77
2022/03/17 09:25:11;;;;;;;;;;;205.70;2252.80;;;;;;5076363;28;19908;-78
2022/03/17 09:27:37;;;;;;;;;;;205.70;2252.80;;;;;;5076233;28;20003;-79
2022/03/17 09:30:03;;;;;;;;;;;230.40;2252.80;;;;;;5074896;28;19967;-78
2022/03/17 09:32:29;;;;;;;;;;;230.50;2252.80;;;;;;5074999;28;19954;-79
2022/03/17 09:34:54;;;;;;;;;;;230.60;2252.80;;;;;;5074961;28;19912;-79
2022/03/17 09:37:20;;;;;;;;;;;230.90;2252.80;;;;;;5074989;28;19904;-77
2022/03/17 09:39:45;;;;;;;;;;;230.90;2252.80;;;;;;5075224;28;20279;-79
2022/03/17 09:42:15;;;;;;;;;;;230.90;2252.80;;;;;;5074903;28;20295;-79
2022/03/17 09:44:42;;;;;;;;;;;231.10;2252.80;;;;;;5074972;28;19905;-79
2022/03/17 09:47:11;;;;;;;;;;;231.20;2252.80;;;;;;5074016;28;19930;-79
2022/03/17 09:49:40;;;;;;;;;;;231.10;2252.80;;;;;;5074891;28;19948;-79
2022/03/17 09:52:12;;;;;;;;;;;231.30;2252.80;;;;;;5074459;28;19919;-79
2022/03/17 09:54:38;;;;;;;;;;;256.20;2252.80;;;;;;5074326;28;19916;-77
2022/03/17 09:57:04;;;;;;;;;;;256.30;2252.80;;;;;;5074609;28;20012;-79
2022/03/17 09:59:30;;;;;;;;;;;256.30;2252.80;;;;;;5074473;28;20360;-80
2022/03/17 10:01:57;;;;;;;;;;;256.50;2252.80;;;;;;5074579;28;20021;-82
2022/03/17 10:04:23;;;;;;;;;;;256.30;2252.80;;;;;;5074699;28;19909;-79
2022/03/17 10:06:49;;;;;;;;;;;256.20;2252.80;;;;;;5074515;28;19915;-80
2022/03/17 10:09:15;;;;;;;;;;;256.30;2252.80;;;;;;5074809;28;19958;-79
2022/03/17 10:11:41;;;;;;;;;;;256.50;2252.80;;;;;;5074931;28;19946;-81
2022/03/17 10:14:07;;;;;;;;;;;256.40;2252.80;;;;;;5074186;28;20346;-79
2022/03/17 10:16:33;;;;;;;;;;;256.40;2252.80;;;;;;5075298;28;19936;-81
2022/03/17 10:19:00;;;;;;;;;;;256.40;2252.80;;;;;;5076533;28;19934;-80
2022/03/17 10:21:27;;;;;;;;;;;256.50;2252.80;;;;;;5091949;28;19908;-79
2022/03/17 10:23:54;;;;;;;;;;;256.50;2252.80;;;;;;5084858;28;20547;-76
2022/03/17 10:26:35;;;;;;;;;;;256.30;2252.80;;;;;;5082315;28;20395;-78
2022/03/17 10:29:08;;;;;;;;;;;256.30;2252.80;;;;;;5081382;28;19912;-79
2022/03/17 10:31:52;;;;;;;;;;;256.20;2252.80;;;;;;5081959;28;19956;-78
2022/03/17 10:34:18;;;;;;;;;;;256.30;2252.80;;;;;;5073661;28;19916;-78
2022/03/17 10:36:47;;;;;;;;;;;256.30;2252.80;;;;;;5073668;28;20007;-78
2022/03/17 10:39:13;;;;;;;;;;;256.40;2252.80;;;;;;5073510;28;19955;-78
2022/03/17 10:41:43;;;;;;;;;;;256.40;2252.80;;;;;;5073516;28;20264;-78
2022/03/17 10:44:15;;;;;;;;;;;256.50;2252.80;;;;;;5073549;28;20158;-78
2022/03/17 10:46:56;;;;;;;;;;;256.90;2252.80;;;;;;5084833;28;20363;-78
2022/03/17 10:49:22;;;;;;;;;;;256.90;2252.80;;;;;;5083538;28;19930;-78
2022/03/17 10:51:52;;;;;;;;;;;256.90;2252.80;;;;;;5082821;28;19916;-78
2022/03/17 10:54:20;;;;;;;;;;;281.70;2278.40;;;;;;5082383;28;19912;-78
2022/03/17 10:57:04;;;;;;;;;;;256.90;2252.80;;;;;;5082210;28;19912;-78
2022/03/17 10:59:39;;;;;;;;;;;256.90;2252.80;;;;;;5083946;28;19953;-79
2022/03/17 11:02:08;;;;;;;;;;;281.60;2278.40;;;;;;5081510;28;19908;-79
2022/03/17 11:04:41;;;;;;;;;;;256.90;2252.80;;;;;;5075474;28;19961;-80
2022/03/17 11:07:11;;;;;;;;;;;281.60;2278.40;;;;;;5072896;28;19908;-78
2022/03/17 11:09:39;;;;;;;;;;;281.60;2278.40;;;;;;5073117;28;19904;-78
2022/03/17 11:12:12;;;;;;;;;;;256.90;2252.80;;;;;;5072984;28;19963;-78
2022/03/17 11:14:49;;;;;;;;;;;256.90;2252.80;;;;;;5074235;28;19920;-78
2022/03/17 11:17:18;;;;;;;;;;;256.90;2252.80;;;;;;5072922;28;19904;-78
2022/03/17 11:19:44;;;;;;;;;;;256.70;2252.80;;;;;;5072823;28;19909;-78
2022/03/17 11:22:13;;;;;;;;;;;256.70;2252.80;;;;;;5072877;28;19953;-79
2022/03/17 11:24:39;;;;;;;;;;;256.70;2252.80;;;;;;5072694;28;20018;-78
2022/03/17 11:27:12;;;;;;;;;;;256.70;2252.80;;;;;;5072435;28;20430;-79
2022/03/17 11:29:44;;;;;;;;;;;256.90;2252.80;;;;;;5072745;28;20284;-78
2022/03/17 11:32:29;;;;;;;;;;;256.90;2252.80;;;;;;5072599;28;20007;-78
2022/03/17 11:35:21;;;;;;;;;;;256.90;2252.80;;;;;;5072507;28;19916;-78
2022/03/17 11:37:46;;;;;;;;;;;256.90;2252.80;;;;;;5070311;28;19944;-78
2022/03/17 11:40:16;;;;;;;;;;;256.90;2252.80;;;;;;5072736;28;19908;-80
2022/03/17 11:42:41;;;;;;;;;;;281.60;2278.40;;;;;;5072921;28;19943;-79
2022/03/17 11:45:10;;;;;;;;;;;256.70;2252.80;;;;;;5072767;28;19993;-80
2022/03/17 11:47:36;;;;;;;;;;;256.70;2252.80;;;;;;5072896;28;19943;-79
2022/03/17 11:50:36;;;;;;;;;;;256.80;2252.80;;;;;;5072569;28;19999;-79
2022/03/17 11:53:03;;;;;;;;;;;256.70;2252.80;;;;;;5035206;28;19905;-79
2022/03/17 11:55:32;;;;;;;;;;;256.70;2252.80;;;;;;5035910;28;20030;-80
2022/03/17 11:58:24;;;;;;;;;;;256.60;2252.80;;;;;;5035786;28;19905;-79
2022/03/17 12:01:13;;;;;;;;;;;256.60;2252.80;;;;;;5035148;28;19909;-81
2022/03/17 12:03:44;;;;;;;;;;;256.90;2252.80;;;;;;5032162;28;19955;-81
2022/03/17 12:06:10;;;;;;;;;;;256.80;2252.80;;;;;;5022990;28;19992;-80
2022/03/17 12:08:37;;;;;;;;;;;256.70;2252.80;;;;;;5020781;28;20015;-80
2022/03/17 12:11:03;;;;;;;;;;;256.50;2252.80;;;;;;5004434;28;20014;-78
2022/03/17 12:13:28;;;;;;;;;;;256.60;2252.80;;;;;;5010445;28;19909;-79
2022/03/17 12:15:57;;;;;;;;;;;256.60;2252.80;;;;;;5006886;28;20037;-80
2022/03/17 12:18:23;;;;;;;;;;;256.90;2252.80;;;;;;5010189;28;19906;-79
2022/03/17 12:20:52;;;;;;;;;;;256.60;2252.80;;;;;;5015559;28;19905;-80
2022/03/17 12:23:47;;;;;;;;;;;256.70;2252.80;;;;;;5025506;28;19964;-80
2022/03/17 12:26:12;;;;;;;;;;;256.80;2252.80;;;;;;5025832;28;19934;-79
2022/03/17 12:28:44;;;;;;;;;;;256.60;2252.80;;;;;;4987005;28;20314;-78
2022/03/17 12:31:10;;;;;;;;;;;256.50;2252.80;;;;;;4987164;28;19917;-79
2022/03/17 12:33:42;;;;;;;;;;;256.70;2252.80;;;;;;4970452;28;19916;-79
2022/03/17 12:36:08;;;;;;;;;;;256.70;2252.80;;;;;;4973631;28;19906;-85
2022/03/17 12:38:34;;;;;;;;;;;256.70;2252.80;;;;;;4979205;28;19906;-80
2022/03/17 12:41:00;;;;;;;;;;;256.80;2252.80;;;;;;5000429;28;19906;-82
2022/03/17 12:43:26;;;;;;;;;;;256.90;2252.80;;;;;;4987799;28;19945;-79
2022/03/17 12:45:52;;;;;;;;;;;256.90;2252.80;;;;;;4986942;28;20384;-81
2022/03/17 12:48:18;;;;;;;;;;;256.70;2252.80;;;;;;4979259;28;19965;-79
2022/03/17 12:50:45;;;;;;;;;;;256.70;2252.80;;;;;;4979131;28;19921;-78
2022/03/17 12:53:11;;;;;;;;;;;256.70;2252.80;;;;;;4979296;28;19913;-79
2022/03/17 12:55:37;;;;;;;;;;;256.60;2252.80;;;;;;4983988;28;19925;-77
2022/03/17 12:58:04;;;;;;;;;;;256.50;2252.80;;;;;;5004527;28;19906;-80
2022/03/17 13:00:30;;;;;;;;;;;256.50;2252.80;;;;;;4987220;28;19917;-80
2022/03/17 13:02:56;;;;;;;;;;;256.50;2252.80;;;;;;5050480;28;19908;-80
2022/03/17 13:08:07;;;;;;;;;;;256.50;2252.80;;;;;;5086504;28;19958;-80
2022/03/17 13:14:20;;;;;;;;;;;256.50;2252.80;;;;;;5084110;28;19946;-81
2022/03/17 13:16:04;;;;;;;;;;;256.40;2201.60;;;;;;5080507;28;19965;-81
2022/03/17 13:18:59;;;;;;;;;;;256.50;2201.60;;;;;;5083175;28;19912;-78
2022/03/17 13:21:24;;;;;;;;;;;256.50;2176.00;;;;;;5025721;28;20359;-80
2022/03/17 13:23:51;;;;;;;;;;;256.40;2150.40;;;;;;5026046;28;19948;-79
2022/03/17 13:26:27;;;;;;;;;;;256.50;2150.40;;;;;;5027151;28;19908;-80
2022/03/17 13:29:03;;;;;;;;;;;256.50;2124.80;;;;;;5027728;28;19904;-79
2022/03/17 13:31:36;;;;;;;;;;;256.40;2099.20;;;;;;5027556;28;19925;-80
2022/03/17 13:34:01;;;;;;;;;;;256.60;2176.00;;;;;;5026611;28;19951;-79
2022/03/17 13:36:45;;;;;;;;;;;256.50;2073.60;;;;;;5026223;28;19905;-79
2022/03/17 13:39:11;;;;;;;;;;;256.60;2073.60;;;;;;5052598;28;19905;-80
2022/03/17 13:41:37;;;;;;;;;;;256.60;2073.60;;;;;;5053973;28;19964;-79
2022/03/17 13:44:05;;;;;;;;;;;256.50;2073.60;;;;;;5037171;28;19911;-79
2022/03/17 13:46:37;;;;;;;;;;;256.50;2073.60;;;;;;5053735;28;19904;-79
2022/03/17 13:49:15;;;;;;;;;;;256.50;2073.60;;;;;;5053871;28;19904;-80
2022/03/17 13:51:41;;;;;;;;;;;256.50;2073.60;;;;;;5037079;28;19923;-80
2022/03/17 13:54:06;;;;;;;;;;;256.60;2124.80;;;;;;5053619;28;19995;-79
2022/03/17 13:56:34;;;;;;;;;;;256.60;2073.60;;;;;;5053563;28;19908;-79
2022/03/17 13:59:00;;;;;;;;;;;256.60;2048.00;;;;;;5094122;28;19955;-82
2022/03/17 14:01:26;;;;;;;;;;;256.50;2022.40;;;;;;5093905;28;19943;-79
2022/03/17 14:03:52;;;;;;;;;;;256.30;2022.40;;;;;;5095807;28;19912;-80